Time;durP1;ratioP1;P1;durP2;ratioP2;P2;SDS_P1;SDS_P2;PMS_P1;PMS_P2;Temp;Humidity;BMP_temperature;BMP_pressure;BME280_temperature;BME280_humidity;BME280_pressure;Samples;Min_cycle;Max_cycle;Signal;HPM_P1;HPM_P2
2021/09/07 00:00:18;;;;;;;19.27;15.80;;;15.00;99.90;;;;;;6216736;23;20533;-49
2021/09/07 00:02:49;;;;;;;18.07;16.00;;;15.00;99.90;;;;;;6217385;23;20422;-51
2021/09/07 00:05:20;;;;;;;21.63;15.80;;;15.00;99.90;;;;;;6216997;23;20426;-51
2021/09/07 00:07:53;;;;;;;17.67;15.77;;;15.00;99.90;;;;;;6217357;23;20419;-55
2021/09/07 00:10:21;;;;;;;17.97;14.60;;;15.00;99.90;;;;;;6216913;23;20442;-53
2021/09/07 00:12:49;;;;;;;25.73;15.93;;;14.90;99.90;;;;;;6217678;23;20752;-53
2021/09/07 00:15:19;;;;;;;17.17;15.43;;;14.80;99.90;;;;;;6217442;23;20473;-51
2021/09/07 00:17:47;;;;;;;16.30;14.60;;;14.80;99.90;;;;;;6217034;23;20477;-48
2021/09/07 00:20:19;;;;;;;18.13;14.80;;;14.80;99.90;;;;;;6217562;23;20419;-49
2021/09/07 00:22:49;;;;;;;19.10;16.00;;;14.80;99.90;;;;;;6217184;23;20473;-49
2021/09/07 00:25:19;;;;;;;18.23;15.73;;;14.80;99.90;;;;;;6217433;23;20419;-48
2021/09/07 00:27:49;;;;;;;19.90;15.43;;;14.80;99.90;;;;;;6217314;23;20430;-50
2021/09/07 00:30:17;;;;;;;20.77;15.97;;;14.70;99.90;;;;;;6216932;23;20419;-49
2021/09/07 00:32:45;;;;;;;18.40;15.80;;;14.70;99.90;;;;;;6217424;23;20718;-46
2021/09/07 00:35:13;;;;;;;19.60;15.83;;;14.60;99.90;;;;;;6217410;23;20419;-48
2021/09/07 00:37:41;;;;;;;21.17;17.70;;;14.60;99.90;;;;;;6217575;23;20419;-52
2021/09/07 00:40:12;;;;;;;18.70;14.67;;;14.50;99.90;;;;;;6217398;23;20842;-53
2021/09/07 00:42:43;;;;;;;19.70;15.97;;;14.50;1.00;;;;;;6217743;23;20476;-46
2021/09/07 00:45:15;;;;;;;20.20;16.93;;;14.40;1.00;;;;;;6216978;23;20430;-53
2021/09/07 00:47:46;;;;;;;18.63;15.40;;;14.50;1.00;;;;;;6217229;23;20427;-51
2021/09/07 00:50:15;;;;;;;17.50;14.60;;;14.50;1.00;;;;;;6217101;23;20397;-51
2021/09/07 00:52:44;;;;;;;17.27;15.47;;;14.50;99.90;;;;;;6217409;23;20419;-53
2021/09/07 00:55:14;;;;;;;18.77;15.23;;;14.50;99.90;;;;;;6217251;23;20419;-54
2021/09/07 00:57:46;;;;;;;17.63;14.80;;;14.50;1.00;;;;;;6217093;23;20419;-50
2021/09/07 01:00:15;;;;;;;17.33;14.83;;;14.50;1.00;;;;;;6216495;23;20451;-52
2021/09/07 01:02:52;;;;;;;17.87;14.40;;;14.50;1.00;;;;;;6217636;23;20869;-54
2021/09/07 01:05:20;;;;;;;16.80;15.07;;;14.40;1.00;;;;;;6217166;23;20534;-50
2021/09/07 01:07:48;;;;;;;19.20;15.63;;;14.40;1.00;;;;;;6217198;23;20786;-52
2021/09/07 01:10:18;;;;;;;20.10;14.40;;;14.40;99.90;;;;;;6216985;23;20449;-50
2021/09/07 01:12:46;;;;;;;19.33;14.83;;;14.30;99.90;;;;;;6217581;23;20431;-50
2021/09/07 01:15:17;;;;;;;15.67;13.43;;;14.30;99.90;;;;;;6216926;23;20488;-50
2021/09/07 01:17:45;;;;;;;17.63;15.00;;;14.20;1.00;;;;;;6216456;23;20426;-53
2021/09/07 01:20:16;;;;;;;20.20;16.20;;;14.20;1.00;;;;;;6216995;23;20404;-49
2021/09/07 01:22:47;;;;;;;17.43;14.43;;;14.20;1.00;;;;;;6217442;23;20912;-49
2021/09/07 01:25:18;;;;;;;18.13;15.47;;;14.20;99.90;;;;;;6216751;23;20427;-50
2021/09/07 01:27:46;;;;;;;16.30;14.60;;;14.20;99.90;;;;;;6217191;23;20423;-46
2021/09/07 01:30:15;;;;;;;18.67;15.90;;;14.20;99.90;;;;;;6217135;23;20485;-48
2021/09/07 01:32:45;;;;;;;17.90;14.93;;;14.20;1.00;;;;;;6217326;23;20551;-47
2021/09/07 01:35:13;;;;;;;18.33;15.37;;;14.10;1.00;;;;;;6216988;23;20419;-50
2021/09/07 01:37:42;;;;;;;17.53;15.30;;;14.10;1.00;;;;;;6217102;23;20484;-49
2021/09/07 01:40:12;;;;;;;17.40;15.20;;;14.10;1.00;;;;;;6216954;23;20434;-51
2021/09/07 01:42:43;;;;;;;17.13;15.30;;;14.00;1.00;;;;;;6218948;23;20850;-47
2021/09/07 01:45:12;;;;;;;18.13;15.17;;;13.90;99.90;;;;;;6218565;23;20430;-50
2021/09/07 01:47:43;;;;;;;21.53;15.00;;;13.90;1.00;;;;;;6218880;23;20422;-47
2021/09/07 01:50:14;;;;;;;16.97;14.20;;;13.90;1.00;;;;;;6218360;23;20415;-47
2021/09/07 01:52:48;;;;;;;17.63;14.77;;;13.80;1.00;;;;;;6219080;23;20472;-48
2021/09/07 01:55:16;;;;;;;19.23;14.93;;;13.80;1.00;;;;;;6218487;23;20394;-53
2021/09/07 01:57:47;;;;;;;18.63;15.10;;;13.80;54.40;;;;;;6217818;23;20442;-50
2021/09/07 02:00:16;;;;;;;16.00;14.40;;;13.90;99.90;;;;;;6218127;23;20550;-50
2021/09/07 02:02:43;;;;;;;18.13;16.23;;;13.90;13.30;;;;;;6218570;23;20418;-48
2021/09/07 02:05:10;;;;;;;20.23;16.20;;;13.90;1.00;;;;;;6218297;23;20477;-50
2021/09/07 02:07:37;;;;;;;16.27;14.00;;;13.80;1.00;;;;;;6218676;23;20426;-48
2021/09/07 02:10:06;;;;;;;18.23;14.90;;;13.80;1.00;;;;;;6218041;23;20905;-52
2021/09/07 02:12:33;;;;;;;17.60;14.33;;;13.80;1.00;;;;;;6218694;23;20457;-53
2021/09/07 02:15:02;;;;;;;16.17;14.33;;;13.80;5.60;;;;;;6218643;23;20415;-51
2021/09/07 02:17:29;;;;;;;18.20;14.43;;;13.70;1.00;;;;;;6218512;23;20422;-48
2021/09/07 02:19:56;;;;;;;15.70;14.00;;;13.70;99.90;;;;;;6217745;23;20467;-51
2021/09/07 02:22:23;;;;;;;15.20;13.60;;;13.60;1.00;;;;;;6218325;23;20722;-48
2021/09/07 02:24:51;;;;;;;17.90;16.00;;;13.50;1.00;;;;;;6217650;23;20518;-53
2021/09/07 02:27:18;;;;;;;17.70;14.23;;;13.50;99.90;;;;;;6218061;23;20912;-50
2021/09/07 02:29:45;;;;;;;20.43;15.70;;;13.50;1.00;;;;;;6218073;23;20805;-50
2021/09/07 02:32:13;;;;;;;17.10;14.90;;;13.50;34.10;;;;;;6218339;23;20462;-49
2021/09/07 02:34:44;;;;;;;19.47;14.57;;;13.50;95.20;;;;;;6218349;23;20393;-54
2021/09/07 02:37:11;;;;;;;21.43;15.20;;;13.40;1.00;;;;;;6218215;23;20419;-54
2021/09/07 02:39:38;;;;;;;17.37;15.53;;;13.50;99.90;;;;;;6218153;23;20732;-49
2021/09/07 02:42:05;;;;;;;17.90;14.70;;;13.50;1.00;;;;;;6218130;23;20857;-51
2021/09/07 02:44:33;;;;;;;18.77;15.77;;;13.50;1.00;;;;;;6218571;23;20465;-49
2021/09/07 02:47:00;;;;;;;19.80;15.70;;;13.60;1.00;;;;;;6218115;23;20469;-53
2021/09/07 02:49:30;;;;;;;20.03;15.60;;;13.60;1.00;;;;;;6218032;23;20836;-47
2021/09/07 02:51:57;;;;;;;20.70;16.27;;;13.50;1.00;;;;;;6217841;23;20460;-53
2021/09/07 02:54:25;;;;;;;20.53;16.00;;;13.50;34.20;;;;;;6217860;23;20513;-50
2021/09/07 02:56:52;;;;;;;19.57;17.00;;;13.50;99.90;;;;;;6217960;23;20712;-49
2021/09/07 02:59:19;;;;;;;16.67;14.90;;;13.60;99.90;;;;;;6217451;23;20447;-50
2021/09/07 03:01:46;;;;;;;19.30;16.17;;;13.60;1.00;;;;;;6218160;23;20415;-51
2021/09/07 03:04:13;;;;;;;18.70;16.50;;;13.70;1.00;;;;;;6217967;23;20862;-51
2021/09/07 03:06:41;;;;;;;17.40;15.30;;;13.70;99.90;;;;;;6217788;23;20419;-53
2021/09/07 03:09:08;;;;;;;16.40;13.93;;;13.70;99.90;;;;;;6218513;23;20419;-48
2021/09/07 03:11:37;;;;;;;16.80;14.93;;;13.70;1.00;;;;;;6217693;23;20732;-50
2021/09/07 03:14:04;;;;;;;19.80;15.53;;;13.80;99.90;;;;;;6218025;23;20422;-51
2021/09/07 03:16:33;;;;;;;17.00;15.20;;;13.80;1.00;;;;;;6218195;23;20538;-51
2021/09/07 03:19:00;;;;;;;18.77;14.83;;;13.80;99.90;;;;;;6218198;23;20469;-50
2021/09/07 03:21:27;;;;;;;16.00;14.10;;;13.80;96.50;;;;;;6217371;23;20419;-46
2021/09/07 03:23:56;;;;;;;19.27;15.30;;;13.80;99.90;;;;;;6217975;23;20445;-47
2021/09/07 03:26:23;;;;;;;19.77;15.47;;;13.80;99.90;;;;;;6218379;23;20415;-50
2021/09/07 03:28:50;;;;;;;18.10;14.63;;;13.80;1.00;;;;;;6218479;23;20411;-52
2021/09/07 03:31:17;;;;;;;17.40;15.00;;;13.80;99.90;;;;;;6217785;23;20427;-53
2021/09/07 03:33:47;;;;;;;19.80;15.50;;;13.80;1.00;;;;;;6217638;23;20419;-55
2021/09/07 03:36:13;;;;;;;16.87;14.80;;;13.80;99.90;;;;;;6217644;23;20868;-53
2021/09/07 03:38:40;;;;;;;16.13;14.43;;;13.70;1.00;;;;;;6217691;23;20780;-52
2021/09/07 03:41:09;;;;;;;17.30;14.63;;;13.70;58.90;;;;;;6217465;23;20427;-55
2021/09/07 03:43:36;;;;;;;16.40;14.53;;;13.70;99.90;;;;;;6218204;23;20414;-54
2021/09/07 03:46:03;;;;;;;15.90;14.20;;;13.80;99.90;;;;;;6218128;23;20430;-56
2021/09/07 03:48:30;;;;;;;21.20;15.60;;;13.80;1.00;;;;;;6217517;23;20419;-56
2021/09/07 03:50:59;;;;;;;17.33;14.93;;;13.80;1.00;;;;;;6218273;23;20414;-51
2021/09/07 03:53:28;;;;;;;17.80;13.80;;;13.80;99.90;;;;;;6216988;23;20461;-52
2021/09/07 03:55:55;;;;;;;20.50;15.90;;;13.80;1.00;;;;;;6217814;23;20488;-55
2021/09/07 03:58:23;;;;;;;20.60;15.47;;;13.80;99.90;;;;;;6217403;23;20419;-55
2021/09/07 04:00:50;;;;;;;17.03;15.03;;;13.80;99.90;;;;;;6216831;23;20443;-51
2021/09/07 04:03:19;;;;;;;18.90;15.33;;;13.90;99.90;;;;;;6217007;23;20478;-54
2021/09/07 04:05:47;;;;;;;22.43;14.77;;;13.90;99.90;;;;;;6217558;23;20898;-50
2021/09/07 04:08:15;;;;;;;17.67;15.27;;;14.00;99.90;;;;;;6217427;23;20473;-51
2021/09/07 04:10:42;;;;;;;15.93;14.23;;;14.00;99.90;;;;;;6217592;23;20393;-52
2021/09/07 04:13:12;;;;;;;16.20;14.00;;;14.00;99.90;;;;;;6217092;23;20458;-54
2021/09/07 04:15:41;;;;;;;17.40;15.60;;;14.00;95.30;;;;;;6217396;23;20740;-50
2021/09/07 04:18:08;;;;;;;17.97;14.17;;;14.00;17.60;;;;;;6217052;23;20419;-54
2021/09/07 04:20:35;;;;;;;19.23;14.43;;;14.00;1.00;;;;;;6216463;23;20525;-53
2021/09/07 04:23:02;;;;;;;16.80;14.90;;;14.10;1.90;;;;;;6216266;23;20710;-53
2021/09/07 04:25:29;;;;;;;17.23;15.47;;;14.10;1.00;;;;;;6216875;23;20415;-50
2021/09/07 04:27:56;;;;;;;20.47;17.50;;;14.10;1.00;;;;;;6217323;23;20889;-53
2021/09/07 04:30:25;;;;;;;15.83;14.10;;;14.10;1.00;;;;;;6217285;23;20740;-49
2021/09/07 04:32:54;;;;;;;16.33;14.27;;;14.10;1.00;;;;;;6217337;23;20447;-50
2021/09/07 04:35:21;;;;;;;20.77;14.43;;;14.10;1.00;;;;;;6216913;23;20477;-55
2021/09/07 04:37:49;;;;;;;17.40;13.77;;;14.00;1.00;;;;;;6217015;23;20853;-56
2021/09/07 04:40:16;;;;;;;15.10;13.50;;;14.10;1.00;;;;;;6217634;23;20423;-56
2021/09/07 04:42:49;;;;;;;16.73;14.93;;;14.10;1.00;;;;;;6216380;23;20739;-55
2021/09/07 04:45:16;;;;;;;15.77;14.10;;;14.10;1.00;;;;;;6215600;23;20422;-52
2021/09/07 04:47:43;;;;;;;18.43;14.50;;;14.10;1.00;;;;;;6215915;23;20466;-48
2021/09/07 04:50:12;;;;;;;18.73;15.63;;;14.10;1.00;;;;;;6216333;23;20480;-50
2021/09/07 04:52:39;;;;;;;20.27;15.90;;;14.20;1.00;;;;;;6216641;23;20450;-54
2021/09/07 04:55:06;;;;;;;17.00;14.90;;;14.20;1.00;;;;;;6216375;23;20419;-54
2021/09/07 04:57:33;;;;;;;16.53;14.50;;;14.20;1.00;;;;;;6215066;23;20869;-49
2021/09/07 05:00:00;;;;;;;15.90;14.20;;;14.20;1.00;;;;;;6214720;23;20481;-54
2021/09/07 05:02:27;;;;;;;18.73;16.17;;;14.20;11.40;;;;;;6216335;23;20470;-55
2021/09/07 05:04:56;;;;;;;16.57;14.87;;;14.20;99.90;;;;;;6217322;23;20418;-50
2021/09/07 05:07:24;;;;;;;16.90;14.40;;;14.20;99.90;;;;;;6215678;23;20474;-54
2021/09/07 05:09:54;;;;;;;18.47;15.67;;;14.30;99.90;;;;;;6216483;23;20453;-53
2021/09/07 05:12:23;;;;;;;19.13;15.03;;;14.30;99.90;;;;;;6217024;23;20963;-56
2021/09/07 05:14:50;;;;;;;16.87;15.03;;;14.30;99.90;;;;;;6216271;23;20423;-53
2021/09/07 05:17:17;;;;;;;21.77;16.60;;;14.40;99.90;;;;;;6218530;23;20480;-54
2021/09/07 05:19:46;;;;;;;16.40;14.70;;;14.40;99.90;;;;;;6217810;23;20419;-52
2021/09/07 05:22:13;;;;;;;17.57;14.60;;;14.40;99.90;;;;;;6217315;23;20414;-51
2021/09/07 05:24:50;;;;;;;16.60;14.80;;;14.40;3.20;;;;;;6218111;23;20419;-52
2021/09/07 05:27:19;;;;;;;18.67;14.63;;;14.40;1.00;;;;;;6218121;23;20426;-54
2021/09/07 05:29:46;;;;;;;17.87;15.93;;;14.30;1.00;;;;;;6215983;23;20730;-51
2021/09/07 05:32:13;;;;;;;21.30;15.57;;;14.40;1.00;;;;;;6218343;23;20505;-55
2021/09/07 05:34:40;;;;;;;17.23;15.03;;;14.40;1.00;;;;;;6218111;23;20415;-53
2021/09/07 05:37:07;;;;;;;16.33;14.60;;;14.40;42.80;;;;;;6217517;23;20878;-56
2021/09/07 05:39:34;;;;;;;20.53;15.30;;;14.50;99.90;;;;;;6217333;23;20426;-50
2021/09/07 05:42:05;;;;;;;21.57;15.53;;;14.50;99.90;;;;;;6216884;23;20457;-56
2021/09/07 05:44:31;;;;;;;19.20;16.20;;;14.60;99.90;;;;;;6214726;23;20513;-57
2021/09/07 05:47:01;;;;;;;18.73;16.20;;;14.70;1.00;;;;;;6217433;23;20427;-52
2021/09/07 05:49:28;;;;;;;21.80;15.90;;;14.80;1.00;;;;;;6218144;23;20419;-56
2021/09/07 05:51:55;;;;;;;19.53;16.00;;;14.90;1.00;;;;;;6217261;23;20419;-57
2021/09/07 05:54:22;;;;;;;21.47;16.97;;;14.90;99.90;;;;;;6218351;23;20492;-57
2021/09/07 05:56:49;;;;;;;17.77;14.83;;;15.00;99.90;;;;;;6218467;23;20419;-53
2021/09/07 05:59:19;;;;;;;19.53;15.87;;;15.10;99.90;;;;;;6217890;23;20466;-53
2021/09/07 06:01:46;;;;;;;16.10;14.40;;;15.10;99.90;;;;;;6218439;23;20427;-57
2021/09/07 06:04:16;;;;;;;19.47;15.87;;;15.00;99.90;;;;;;6218646;23;20423;-54
2021/09/07 06:06:43;;;;;;;20.77;16.43;;;15.20;99.90;;;;;;6218832;23;20868;-51
2021/09/07 06:09:10;;;;;;;22.43;18.43;;;15.30;99.90;;;;;;6218188;23;20468;-53
2021/09/07 06:11:38;;;;;;;21.37;15.83;;;15.40;99.90;;;;;;6218537;23;20426;-57
2021/09/07 06:14:05;;;;;;;18.53;16.53;;;15.50;65.90;;;;;;6218555;23;20473;-57
2021/09/07 06:16:34;;;;;;;21.80;16.17;;;15.50;74.40;;;;;;6218566;23;20461;-53
2021/09/07 06:19:00;;;;;;;21.67;15.67;;;15.50;45.70;;;;;;6218626;23;20415;-52
2021/09/07 06:21:32;;;;;;;23.13;15.77;;;15.60;38.30;;;;;;6219028;23;20423;-56
2021/09/07 06:24:02;;;;;;;22.37;16.57;;;15.60;45.60;;;;;;6218212;23;20869;-57
2021/09/07 06:26:29;;;;;;;17.03;15.23;;;15.80;22.70;;;;;;6218754;23;20854;-51
2021/09/07 06:29:00;;;;;;;20.30;17.80;;;15.80;1.00;;;;;;6218039;23;20450;-51
2021/09/07 06:31:27;;;;;;;19.10;16.27;;;15.80;1.00;;;;;;6217699;23;20420;-53
2021/09/07 06:33:56;;;;;;;17.20;15.10;;;15.90;1.00;;;;;;6218322;23;20454;-57
2021/09/07 06:36:23;;;;;;;18.33;16.03;;;16.00;1.00;;;;;;6218629;23;20418;-55
2021/09/07 06:38:50;;;;;;;19.97;16.53;;;16.00;1.00;;;;;;6218290;23;20423;-57
2021/09/07 06:41:17;;;;;;;17.93;15.70;;;16.10;1.00;;;;;;6218276;23;20711;-56
2021/09/07 06:43:44;;;;;;;19.53;16.83;;;16.10;1.00;;;;;;6218221;23;20849;-56
2021/09/07 06:46:11;;;;;;;17.93;16.17;;;16.10;1.00;;;;;;6218877;23;20415;-49
2021/09/07 06:48:38;;;;;;;21.43;15.53;;;16.30;1.00;;;;;;6218427;23;20426;-52
2021/09/07 06:51:06;;;;;;;16.70;14.90;;;16.40;1.00;;;;;;6218605;23;20422;-57
2021/09/07 06:53:33;;;;;;;19.57;16.50;;;16.50;1.00;;;;;;6218190;23;20545;-50
2021/09/07 06:56:00;;;;;;;19.57;13.93;;;16.60;1.00;;;;;;6218091;23;20733;-51
2021/09/07 06:58:29;;;;;;;17.00;15.30;;;16.70;1.00;;;;;;6217575;23;20462;-51
2021/09/07 07:01:00;;;;;;;17.80;15.90;;;16.70;1.00;;;;;;6218009;23;20451;-49
2021/09/07 07:03:33;;;;;;;21.10;16.57;;;16.80;1.00;;;;;;6215848;23;20477;-51
2021/09/07 07:06:00;;;;;;;20.17;17.10;;;17.00;1.00;;;;;;6217277;23;20430;-51
2021/09/07 07:08:28;;;;;;;18.30;16.37;;;17.20;1.00;;;;;;6216645;23;20422;-54
2021/09/07 07:10:55;;;;;;;20.27;17.73;;;17.40;1.00;;;;;;6217389;23;20454;-54
2021/09/07 07:13:24;;;;;;;22.93;17.57;;;17.50;1.00;;;;;;6217652;23;20485;-53
2021/09/07 07:15:51;;;;;;;26.03;18.20;;;17.70;1.00;;;;;;6216009;23;20469;-56
2021/09/07 07:18:18;;;;;;;20.23;16.90;;;17.90;1.00;;;;;;6217875;23;20418;-48
2021/09/07 07:20:47;;;;;;;21.37;18.40;;;17.90;1.00;;;;;;6217722;23;20454;-52
2021/09/07 07:23:25;;;;;;;18.73;16.67;;;18.00;1.00;;;;;;6217464;23;20415;-53
2021/09/07 07:25:57;;;;;;;21.13;18.97;;;18.10;1.00;;;;;;6216645;23;20424;-48
2021/09/07 07:28:24;;;;;;;20.30;18.10;;;18.20;1.00;;;;;;6217837;23;20418;-55
2021/09/07 07:30:51;;;;;;;20.67;17.20;;;18.30;1.00;;;;;;6217093;23;20834;-53
2021/09/07 07:33:18;;;;;;;20.57;18.27;;;18.50;1.00;;;;;;6217216;23;20450;-47
2021/09/07 07:35:48;;;;;;;23.33;20.20;;;18.50;1.00;;;;;;6217783;23;20452;-53
2021/09/07 07:38:15;;;;;;;20.77;18.13;;;18.60;1.00;;;;;;6217711;23;20863;-50
2021/09/07 07:40:44;;;;;;;25.97;18.70;;;18.70;1.00;;;;;;6217807;23;20426;-51
2021/09/07 07:43:17;;;;;;;27.60;19.40;;;18.80;1.00;;;;;;6217768;23;20761;-51
2021/09/07 07:45:47;;;;;;;35.97;21.33;;;18.90;1.00;;;;;;6217475;23;20426;-50
2021/09/07 07:48:16;;;;;;;31.87;20.67;;;19.10;1.00;;;;;;6217687;23;20445;-51
2021/09/07 07:50:43;;;;;;;26.80;19.97;;;19.20;1.00;;;;;;6217571;23;20422;-49
2021/09/07 07:53:12;;;;;;;33.13;20.30;;;19.30;1.00;;;;;;6217279;23;20792;-53
2021/09/07 07:55:44;;;;;;;31.10;19.63;;;19.50;1.00;;;;;;6217264;23;20423;-51
2021/09/07 07:58:12;;;;;;;29.67;19.30;;;19.50;1.00;;;;;;6217643;23;20419;-55
2021/09/07 08:00:39;;;;;;;21.17;18.97;;;19.70;1.00;;;;;;6216600;23;20428;-53
2021/09/07 08:03:06;;;;;;;25.10;19.67;;;19.80;1.00;;;;;;6216921;23;20426;-53
2021/09/07 08:05:34;;;;;;;31.60;20.30;;;20.10;1.00;;;;;;6216775;23;20773;-50
2021/09/07 08:08:04;;;;;;;22.73;19.47;;;20.40;1.00;;;;;;6217491;23;20465;-53
2021/09/07 08:10:31;;;;;;;22.90;20.40;;;20.60;1.00;;;;;;6217696;23;20419;-50
2021/09/07 08:13:00;;;;;;;27.33;20.00;;;20.70;1.00;;;;;;6217270;23;20455;-54
2021/09/07 08:15:30;;;;;;;30.60;19.70;;;20.90;1.00;;;;;;6217464;23;20419;-54
2021/09/07 08:17:57;;;;;;;24.50;19.70;;;21.00;1.00;;;;;;6216771;23;20450;-50
2021/09/07 08:20:32;;;;;;;26.73;20.90;;;21.10;1.00;;;;;;6217558;23;20469;-51
2021/09/07 08:22:59;;;;;;;23.90;20.43;;;21.20;1.00;;;;;;6217850;23;20418;-55
2021/09/07 08:25:26;;;;;;;26.30;20.63;;;21.20;99.90;;;;;;6216171;23;20426;-55
2021/09/07 08:27:54;;;;;;;29.93;21.43;;;21.40;99.90;;;;;;6217023;23;20418;-52
2021/09/07 08:30:21;;;;;;;25.50;21.20;;;21.50;99.90;;;;;;6217131;23;20426;-54
2021/09/07 08:32:50;;;;;;;25.03;20.97;;;21.60;99.90;;;;;;6217120;23;20850;-50
2021/09/07 08:35:17;;;;;;;24.87;18.53;;;21.70;99.90;;;;;;6190665;23;20479;-57
2021/09/07 08:37:44;;;;;;;24.27;19.90;;;21.90;99.90;;;;;;6215265;23;20426;-56
2021/09/07 08:40:12;;;;;;;24.70;19.47;;;22.00;99.90;;;;;;6216588;23;20890;-55
2021/09/07 08:42:39;;;;;;;20.80;17.70;;;22.00;99.90;;;;;;6216742;23;20418;-56
2021/09/07 08:45:09;;;;;;;27.63;18.83;;;22.10;99.90;;;;;;6216720;23;20418;-53
2021/09/07 08:47:37;;;;;;;23.67;17.80;;;22.30;99.90;;;;;;6215431;23;20415;-57
2021/09/07 08:50:08;;;;;;;18.60;16.77;;;22.40;99.90;;;;;;6216928;23;20718;-53
2021/09/07 08:52:35;;;;;;;22.20;17.77;;;22.60;99.90;;;;;;6218551;23;20418;-56
2021/09/07 08:55:03;;;;;;;18.37;15.73;;;22.70;99.90;;;;;;6219361;23;20457;-52
2021/09/07 08:57:32;;;;;;;16.10;14.40;;;22.70;99.90;;;;;;6218175;23;20419;-54
2021/09/07 09:00:02;;;;;;;17.93;15.37;;;22.70;99.90;;;;;;6216787;23;20557;-53
2021/09/07 09:02:29;;;;;;;17.37;15.57;;;22.80;99.90;;;;;;6217846;23;20481;-51
2021/09/07 09:04:59;;;;;;;17.00;15.30;;;23.10;99.90;;;;;;6218495;23;20414;-57
2021/09/07 09:07:31;;;;;;;17.73;15.03;;;23.10;99.90;;;;;;6218540;23;20472;-50
2021/09/07 09:09:59;;;;;;;16.70;15.00;;;23.30;99.90;;;;;;6218023;23;20429;-54
2021/09/07 09:12:34;;;;;;;16.63;14.40;;;23.70;99.90;;;;;;6219493;23;20479;-57
2021/09/07 09:15:02;;;;;;;16.43;14.73;;;23.60;99.90;;;;;;6218108;23;20504;-52
2021/09/07 09:17:31;;;;;;;15.37;13.87;;;23.70;99.90;;;;;;6217794;23;20415;-56
2021/09/07 09:20:06;;;;;;;15.40;14.00;;;23.80;99.90;;;;;;6217994;23;20425;-56
2021/09/07 09:22:49;;;;;;;14.67;13.27;;;24.00;99.90;;;;;;6218693;23;20453;-53
2021/09/07 09:25:30;;;;;;;14.13;12.73;;;24.10;99.90;;;;;;6216941;23;20473;-49
2021/09/07 09:28:27;;;;;;;14.83;13.33;;;24.30;99.90;;;;;;6218929;23;20421;-55
2021/09/07 09:30:58;;;;;;;14.97;13.47;;;24.20;99.90;;;;;;6217271;23;20513;-55
2021/09/07 09:33:29;;;;;;;13.93;12.60;;;24.40;99.90;;;;;;6202032;23;20459;-55
2021/09/07 09:35:58;;;;;;;14.97;13.23;;;24.50;99.90;;;;;;6216932;23;20731;-55
2021/09/07 09:38:33;;;;;;;15.50;13.80;;;24.30;99.90;;;;;;6216452;23;20423;-51
2021/09/07 09:41:02;;;;;;;14.17;12.87;;;24.80;99.90;;;;;;6216247;23;20476;-51
2021/09/07 09:43:37;;;;;;;15.47;13.73;;;24.90;99.90;;;;;;6216192;23;20457;-54
2021/09/07 09:46:19;;;;;;;14.63;13.33;;;25.10;99.90;;;;;;6218392;23;20472;-56
2021/09/07 09:48:48;;;;;;;15.33;13.83;;;24.70;99.90;;;;;;6216933;23;20853;-50
2021/09/07 09:51:18;;;;;;;15.60;14.00;;;25.10;99.90;;;;;;6218072;23;20857;-57
2021/09/07 09:53:49;;;;;;;15.93;14.40;;;25.50;99.90;;;;;;6218442;23;20447;-54
2021/09/07 09:56:18;;;;;;;19.07;13.90;;;25.50;99.90;;;;;;6218695;23;20430;-54
2021/09/07 09:58:46;;;;;;;13.80;12.43;;;25.20;99.90;;;;;;6218774;23;20461;-52
2021/09/07 10:01:15;;;;;;;15.27;13.77;;;24.70;99.90;;;;;;6218346;23;20500;-54
2021/09/07 10:03:48;;;;;;;15.40;13.67;;;24.90;99.90;;;;;;6218282;23;20415;-50
2021/09/07 10:06:17;;;;;;;17.33;14.73;;;25.30;99.90;;;;;;6216626;23;20418;-47
2021/09/07 10:08:45;;;;;;;15.17;13.50;;;25.20;99.90;;;;;;6218471;23;20415;-53
2021/09/07 10:11:16;;;;;;;18.17;14.37;;;25.30;99.90;;;;;;6217954;23;20426;-47
2021/09/07 10:13:50;;;;;;;14.77;13.47;;;25.30;99.90;;;;;;6218356;23;20905;-54
2021/09/07 10:16:30;;;;;;;14.43;12.77;;;25.50;99.90;;;;;;6218220;23;20749;-55
2021/09/07 10:19:05;;;;;;;15.00;13.53;;;25.80;99.90;;;;;;6218403;23;20768;-49
2021/09/07 10:24:50;;;;;;;14.50;13.20;;;25.60;99.90;;;;;;6218558;23;20402;-50
2021/09/07 10:27:18;;;;;;;15.17;13.77;;;25.70;99.90;;;;;;6218571;23;20521;-56
2021/09/07 10:29:48;;;;;;;14.80;13.30;;;25.90;99.90;;;;;;6218037;23;20427;-53
2021/09/07 10:32:30;;;;;;;16.20;14.50;;;26.00;99.90;;;;;;6218188;23;20419;-52
2021/09/07 10:35:29;;;;;;;13.00;11.80;;;26.10;99.90;;;;;;6217904;23;22131;-51
2021/09/07 10:38:14;;;;;;;15.20;13.80;;;26.50;99.90;;;;;;6216094;23;20473;-52
2021/09/07 10:40:47;;;;;;;14.63;13.23;;;26.80;99.90;;;;;;6218781;23;20489;-51
2021/09/07 10:43:50;;;;;;;16.77;14.03;;;27.00;99.90;;;;;;6218270;23;20446;-53
2021/09/07 10:46:42;;;;;;;15.90;14.27;;;27.10;99.90;;;;;;6208737;23;20776;-50
2021/09/07 10:49:20;;;;;;;13.57;12.33;;;27.00;99.90;;;;;;6218076;23;20415;-51
2021/09/07 10:52:15;;;;;;;14.73;13.10;;;26.90;99.90;;;;;;6218076;23;20389;-48
2021/09/07 10:54:56;;;;;;;14.93;13.50;;;27.10;99.90;;;;;;6217614;23;20458;-50
2021/09/07 10:57:58;;;;;;;15.20;13.60;;;26.40;99.90;;;;;;6216430;23;20920;-52
2021/09/07 11:00:31;;;;;;;13.20;12.00;;;25.60;99.90;;;;;;6217046;23;20446;-52
2021/09/07 11:03:01;;;;;;;13.30;12.20;;;25.90;99.90;;;;;;6217444;23;20423;-52
2021/09/07 11:05:41;;;;;;;13.87;12.73;;;26.80;99.90;;;;;;6215679;23;20461;-48
2021/09/07 11:08:10;;;;;;;14.83;13.07;;;27.20;99.90;;;;;;6217948;23;20430;-49
2021/09/07 11:10:42;;;;;;;14.43;12.60;;;27.50;99.90;;;;;;6217210;23;20526;-53
2021/09/07 11:13:10;;;;;;;14.47;13.07;;;27.70;99.90;;;;;;6215725;23;20455;-53
2021/09/07 11:15:39;;;;;;;13.33;12.00;;;27.90;99.90;;;;;;6217356;23;20450;-52
2021/09/07 11:18:08;;;;;;;14.03;12.73;;;28.50;99.90;;;;;;6217658;23;20713;-53
2021/09/07 11:20:40;;;;;;;13.83;12.53;;;28.80;99.90;;;;;;6217585;23;20458;-53
2021/09/07 11:23:15;;;;;;;12.33;11.23;;;28.70;99.90;;;;;;6216153;23;20430;-51
2021/09/07 11:25:46;;;;;;;15.20;13.60;;;28.30;99.90;;;;;;6216574;23;20425;-55
2021/09/07 11:28:15;;;;;;;14.20;12.90;;;28.30;99.90;;;;;;6217527;23;20426;-50
2021/09/07 11:30:55;;;;;;;13.23;12.10;;;28.70;99.90;;;;;;6217543;23;20514;-54
2021/09/07 11:33:25;;;;;;;14.10;12.80;;;28.90;99.90;;;;;;6217753;23;20419;-54
2021/09/07 11:35:58;;;;;;;14.30;12.83;;;28.30;99.90;;;;;;6217396;23;20415;-53
2021/09/07 11:38:28;;;;;;;14.47;13.07;;;28.40;99.90;;;;;;6217567;23;20553;-53
2021/09/07 11:41:00;;;;;;;16.83;14.97;;;28.70;99.90;;;;;;6217896;23;20423;-52
2021/09/07 11:43:30;;;;;;;14.60;12.50;;;28.20;99.90;;;;;;6216695;23;20780;-53
2021/09/07 11:46:08;;;;;;;13.70;12.60;;;28.30;99.90;;;;;;6217559;23;20537;-52
2021/09/07 11:48:41;;;;;;;13.77;12.13;;;28.60;99.90;;;;;;6217072;23;20418;-56
2021/09/07 11:51:13;;;;;;;13.27;12.07;;;29.00;99.90;;;;;;6217724;23;20422;-53
2021/09/07 11:53:45;;;;;;;13.57;12.27;;;29.30;99.90;;;;;;6215930;23;20411;-51
2021/09/07 11:56:20;;;;;;;13.33;12.00;;;29.60;99.90;;;;;;6216517;23;20422;-53
2021/09/07 11:58:47;;;;;;;13.37;12.20;;;29.20;99.90;;;;;;6216402;23;20872;-49
2021/09/07 12:01:19;;;;;;;14.20;12.90;;;29.00;99.90;;;;;;6215464;23;20442;-49
2021/09/07 12:03:51;;;;;;;14.17;12.87;;;29.10;99.90;;;;;;6214809;23;20418;-54
2021/09/07 12:06:36;;;;;;;15.77;13.83;;;29.40;99.90;;;;;;6216801;23;20525;-52
2021/09/07 12:09:14;;;;;;;13.77;12.37;;;29.70;99.90;;;;;;6213058;23;20434;-50
2021/09/07 12:11:43;;;;;;;14.67;12.20;;;30.10;99.90;;;;;;6215937;23;20422;-50
2021/09/07 12:14:13;;;;;;;13.20;12.00;;;30.40;99.90;;;;;;6216215;23;20446;-49
2021/09/07 12:16:51;;;;;;;12.90;11.80;;;30.60;99.90;;;;;;6216935;23;20414;-50
2021/09/07 12:19:27;;;;;;;13.63;12.33;;;30.50;99.90;;;;;;6216120;23;20452;-52
2021/09/07 12:22:08;;;;;;;14.40;13.00;;;29.80;99.90;;;;;;6216699;23;20488;-53
2021/09/07 12:24:36;;;;;;;14.20;12.67;;;30.00;99.90;;;;;;6215365;23;20419;-56
2021/09/07 12:27:19;;;;;;;13.43;12.23;;;29.60;99.90;;;;;;6216483;23;20418;-53
2021/09/07 12:30:21;;;;;;;14.00;12.70;;;28.90;99.90;;;;;;6215727;23;20418;-55
2021/09/07 12:32:57;;;;;;;13.20;12.03;;;29.10;99.90;;;;;;6216510;23;20418;-54
2021/09/07 12:35:47;;;;;;;12.30;11.20;;;29.00;99.90;;;;;;6216913;23;20450;-57
2021/09/07 12:38:17;;;;;;;13.70;12.43;;;29.00;99.90;;;;;;6215871;23;20695;-56
2021/09/07 12:40:46;;;;;;;13.53;12.43;;;29.50;99.90;;;;;;6216992;23;20468;-58
2021/09/07 12:43:17;;;;;;;12.27;11.20;;;29.20;99.90;;;;;;6216590;23;20426;-57
2021/09/07 12:45:46;;;;;;;13.83;12.50;;;30.00;99.90;;;;;;6216689;23;20450;-58
2021/09/07 12:48:16;;;;;;;12.97;11.93;;;30.30;99.90;;;;;;6216621;23;20473;-56